createdAt,value
2023-02-12T00:01:42.862Z,103475.03
2023-02-12T00:04:10.595Z,103470.31
2023-02-12T00:06:46.519Z,103473.03
2023-02-12T00:09:14.593Z,103475.50
2023-02-12T00:11:42.182Z,103473.97
2023-02-12T00:14:09.477Z,103470.06
2023-02-12T00:16:37.008Z,103480.59
2023-02-12T00:19:04.195Z,103475.50
2023-02-12T00:21:32.015Z,103476.28
2023-02-12T00:24:01.476Z,103470.88
2023-02-12T00:26:28.596Z,103476.09
2023-02-12T00:28:56.145Z,103478.81
2023-02-12T00:31:30.510Z,103470.59
2023-02-12T00:33:59.394Z,103471.16
2023-02-12T00:36:28.081Z,103469.78
2023-02-12T00:38:56.888Z,103465.72
2023-02-12T00:41:25.481Z,103468.44
2023-02-12T00:44:00.255Z,103467.09
2023-02-12T00:46:27.300Z,103471.25
2023-02-12T00:48:54.463Z,103466.44
2023-02-12T00:51:22.507Z,103464.78
2023-02-12T00:53:49.428Z,103467.81
2023-02-12T00:56:16.704Z,103465.84
2023-02-12T00:58:45.326Z,103472.38
2023-02-12T01:01:12.434Z,103467.56
2023-02-12T01:03:40.272Z,103465.47
2023-02-12T01:06:09.242Z,103467.66
2023-02-12T01:08:36.605Z,103469.88
2023-02-12T01:11:06.319Z,103457.69
2023-02-12T01:13:35.255Z,103471.00
2023-02-12T01:16:12.908Z,103478.13
2023-02-12T01:18:40.210Z,103467.00
2023-02-12T01:21:16.357Z,103467.81
2023-02-12T01:23:44.649Z,103477.56
2023-02-12T01:26:12.444Z,103465.34
2023-02-12T01:28:42.022Z,103466.66
2023-02-12T01:31:17.445Z,103469.72
2023-02-12T01:33:50.849Z,103468.06
2023-02-12T01:36:18.146Z,103467.00
2023-02-12T01:38:46.795Z,103461.91
2023-02-12T01:41:19.161Z,103466.34
2023-02-12T01:44:07.050Z,103457.94
2023-02-12T01:46:35.185Z,103469.31
2023-02-12T01:49:04.639Z,103468.81
2023-02-12T01:51:32.794Z,103468.22
2023-02-12T01:54:02.682Z,103464.19
2023-02-12T01:56:30.745Z,103463.84
2023-02-12T01:58:58.212Z,103466.59
2023-02-12T02:01:27.912Z,103463.38
2023-02-12T02:04:00.481Z,103456.03
2023-02-12T02:06:33.081Z,103462.94
2023-02-12T02:09:01.475Z,103462.22
2023-02-12T02:11:47.586Z,103461.41
2023-02-12T02:14:34.845Z,103457.28
2023-02-12T02:17:20.561Z,103454.09
2023-02-12T02:20:14.937Z,103446.84
2023-02-12T02:23:17.856Z,103456.88
2023-02-12T02:26:04.126Z,103446.88
2023-02-12T02:28:49.871Z,103452.56
2023-02-12T02:31:26.014Z,103444.44
2023-02-12T02:34:18.967Z,103441.34
2023-02-12T02:37:09.662Z,103447.91
2023-02-12T02:39:48.637Z,103445.94
2023-02-12T02:42:20.159Z,103438.63
2023-02-12T02:45:11.439Z,103447.59
2023-02-12T02:47:56.641Z,103438.94
2023-02-12T02:50:25.940Z,103442.41
2023-02-12T02:52:57.128Z,103445.94
2023-02-12T02:55:26.905Z,103443.47
2023-02-12T02:57:58.051Z,103446.16
2023-02-12T03:00:36.560Z,103448.47
2023-02-12T03:03:10.806Z,103444.47
2023-02-12T03:05:42.811Z,103447.06
2023-02-12T03:08:17.297Z,103447.34
2023-02-12T03:10:47.328Z,103445.44
2023-02-12T03:13:21.317Z,103448.31
2023-02-12T03:16:01.081Z,103446.16
2023-02-12T03:18:37.095Z,103448.19
2023-02-12T03:21:17.608Z,103440.00
2023-02-12T03:23:53.131Z,103441.31
2023-02-12T03:26:25.464Z,103441.66
2023-02-12T03:28:53.033Z,103435.09
2023-02-12T03:31:38.526Z,103444.44
2023-02-12T03:34:15.324Z,103440.91
2023-02-12T03:36:53.871Z,103452.97
2023-02-12T03:39:21.324Z,103439.41
2023-02-12T03:41:52.083Z,103447.28
2023-02-12T03:44:42.848Z,103436.78
2023-02-12T03:47:21.960Z,103434.22
2023-02-12T03:50:06.895Z,103436.72
2023-02-12T03:52:34.178Z,103438.63
2023-02-12T03:55:01.498Z,103437.03
2023-02-12T03:57:34.409Z,103425.25
2023-02-12T04:00:05.814Z,103430.13
2023-02-12T04:02:42.702Z,103431.75
2023-02-12T04:05:17.926Z,103425.25
2023-02-12T04:07:45.126Z,103429.06
2023-02-12T04:10:13.272Z,103435.56
2023-02-12T04:12:56.977Z,103431.00
2023-02-12T04:15:44.460Z,103418.78
2023-02-12T04:18:21.308Z,103439.41
2023-02-12T04:21:00.554Z,103442.69
2023-02-12T04:23:51.025Z,103444.34
2023-02-12T04:26:25.310Z,103445.56
2023-02-12T04:29:01.768Z,103447.13
2023-02-12T04:31:53.110Z,103450.78
2023-02-12T04:34:32.238Z,103451.63
2023-02-12T04:37:18.372Z,103455.97
2023-02-12T04:39:46.389Z,103458.47
2023-02-12T04:42:16.347Z,103458.72
2023-02-12T04:44:44.671Z,103461.16
2023-02-12T04:47:16.623Z,103466.59
2023-02-12T04:49:44.172Z,103467.44
2023-02-12T04:52:12.968Z,103467.09
2023-02-12T04:54:42.149Z,103462.78
2023-02-12T04:57:10.607Z,103465.66
2023-02-12T04:59:37.726Z,103463.66
2023-02-12T05:02:05.450Z,103459.06
2023-02-12T05:04:33.568Z,103465.44
2023-02-12T05:07:00.947Z,103460.00
2023-02-12T05:09:28.225Z,103457.28
2023-02-12T05:11:55.567Z,103458.22
2023-02-12T05:14:25.716Z,103458.72
2023-02-12T05:16:53.156Z,103460.75
2023-02-12T05:19:20.190Z,103456.09
2023-02-12T05:21:56.810Z,103457.69
2023-02-12T05:24:26.932Z,103459.06
2023-02-12T05:26:54.313Z,103451.78
2023-02-12T05:29:22.024Z,103454.38
2023-02-12T05:31:51.577Z,103455.44
2023-02-12T05:34:19.024Z,103461.44
2023-02-12T05:36:46.579Z,103459.31
2023-02-12T05:39:13.726Z,103462.00
2023-02-12T05:41:40.526Z,103457.91
2023-02-12T05:44:07.807Z,103460.94
2023-02-12T05:46:36.531Z,103458.84
2023-02-12T05:49:03.938Z,103456.22
2023-02-12T05:51:32.370Z,103464.00
2023-02-12T05:54:03.725Z,103464.47
2023-02-12T05:56:37.923Z,103461.50
2023-02-12T05:59:07.838Z,103468.97
2023-02-12T06:01:41.490Z,103464.41
2023-02-12T06:04:15.751Z,103460.06
2023-02-12T06:06:43.506Z,103465.94
2023-02-12T06:09:12.530Z,103459.41
2023-02-12T06:11:39.815Z,103463.09
2023-02-12T06:14:11.396Z,103474.50
2023-02-12T06:16:38.449Z,103470.47
2023-02-12T06:19:07.740Z,103472.13
2023-02-12T06:21:36.788Z,103471.69
2023-02-12T06:24:04.829Z,103480.19
2023-02-12T06:26:34.119Z,103467.25
2023-02-12T06:29:02.617Z,103468.59
2023-02-12T06:31:33.734Z,103471.47
2023-02-12T06:34:04.774Z,103472.88
2023-02-12T06:36:35.179Z,103472.31
2023-02-12T06:39:03.183Z,103475.59
2023-02-12T06:41:32.602Z,103476.78
2023-02-12T06:44:04.093Z,103482.66
2023-02-12T06:46:31.518Z,103482.09
2023-02-12T06:49:00.198Z,103483.16
2023-02-12T06:51:29.091Z,103495.66
2023-02-12T06:54:01.291Z,103487.50
2023-02-12T06:56:28.947Z,103491.88
2023-02-12T06:58:58.091Z,103486.19
2023-02-12T07:01:29.611Z,103491.94
2023-02-12T07:04:01.208Z,103499.00
2023-02-12T07:06:36.710Z,103502.72
2023-02-12T07:09:05.398Z,103506.50
2023-02-12T07:11:39.224Z,103510.88
2023-02-12T07:14:07.677Z,103510.72
2023-02-12T07:16:40.266Z,103516.41
2023-02-12T07:19:13.804Z,103510.50
2023-02-12T07:21:44.786Z,103521.16
2023-02-12T07:24:19.739Z,103518.25
2023-02-12T07:27:14.523Z,103519.78
2023-02-12T07:29:43.160Z,103513.34
2023-02-12T07:32:11.078Z,103517.00
2023-02-12T07:34:39.447Z,103518.56
2023-02-12T07:37:07.988Z,103520.84
2023-02-12T07:39:40.121Z,103514.91
2023-02-12T07:42:15.018Z,103525.25
2023-02-12T07:44:50.333Z,103519.78
2023-02-12T07:47:18.041Z,103525.75
2023-02-12T07:49:45.251Z,103529.94
2023-02-12T07:52:13.712Z,103528.72
2023-02-12T07:54:44.794Z,103525.97
2023-02-12T07:57:14.070Z,103521.72
2023-02-12T07:59:41.829Z,103525.50
2023-02-12T08:02:10.183Z,103523.94
2023-02-12T08:04:38.038Z,103524.56
2023-02-12T08:07:16.685Z,103518.19
2023-02-12T08:09:46.251Z,103534.84
2023-02-12T08:12:16.019Z,103534.31
2023-02-12T08:14:46.838Z,103537.13
2023-02-12T08:17:26.384Z,103534.78
2023-02-12T08:20:04.572Z,103532.09
2023-02-12T08:22:33.733Z,103535.41
2023-02-12T08:25:01.550Z,103525.44
2023-02-12T08:27:28.947Z,103529.25
2023-02-12T08:29:55.957Z,103534.84
2023-02-12T08:32:24.333Z,103539.97
2023-02-12T08:34:51.804Z,103528.91
2023-02-12T08:37:18.868Z,103537.13
2023-02-12T08:39:46.229Z,103536.31
2023-02-12T08:42:16.243Z,103545.66
2023-02-12T08:44:44.438Z,103542.16
2023-02-12T08:47:14.614Z,103532.44
2023-02-12T08:49:42.788Z,103538.91
2023-02-12T08:52:17.465Z,103540.34
2023-02-12T08:54:47.558Z,103545.44
2023-02-12T08:57:15.531Z,103540.66
2023-02-12T08:59:43.305Z,103550.50
2023-02-12T09:02:14.415Z,103547.75
2023-02-12T09:04:43.705Z,103547.47
2023-02-12T09:07:14.059Z,103544.72
2023-02-12T09:09:47.579Z,103543.44
2023-02-12T09:12:16.868Z,103546.13
2023-02-12T09:14:46.024Z,103537.75
2023-02-12T09:17:17.545Z,103541.06
2023-02-12T09:19:46.719Z,103550.25
2023-02-12T09:22:15.299Z,103538.31
2023-02-12T09:24:43.074Z,103546.78
2023-02-12T09:27:35.533Z,103546.56
2023-02-12T09:30:02.674Z,103554.22
2023-02-12T09:32:30.286Z,103546.81
2023-02-12T09:34:57.669Z,103547.72
2023-02-12T09:37:29.855Z,103547.16
2023-02-12T09:39:57.425Z,103544.44
2023-02-12T09:42:45.601Z,103538.94
2023-02-12T09:45:23.820Z,103548.03
2023-02-12T09:48:28.365Z,103554.22
2023-02-12T09:50:57.566Z,103550.00
2023-02-12T09:53:29.536Z,103542.09
2023-02-12T09:55:57.483Z,103545.19
2023-02-12T09:58:39.842Z,103551.69
2023-02-12T10:01:16.654Z,103552.00
2023-02-12T10:03:46.626Z,103556.38
2023-02-12T10:06:25.191Z,103558.25
2023-02-12T10:09:11.394Z,103561.53
2023-02-12T10:12:14.199Z,103563.94
2023-02-12T10:15:09.378Z,103565.91
2023-02-12T10:17:59.418Z,103559.94
2023-02-12T10:20:52.455Z,103559.69
2023-02-12T10:23:29.554Z,103561.81
2023-02-12T10:26:11.981Z,103555.31
2023-02-12T10:28:40.447Z,103557.50
2023-02-12T10:31:45.838Z,103560.22
2023-02-12T10:34:19.583Z,103560.75
2023-02-12T10:37:15.746Z,103557.50
2023-02-12T10:39:51.021Z,103552.81
2023-02-12T10:42:51.784Z,103560.63
2023-02-12T10:45:22.443Z,103563.13
2023-02-12T10:47:53.391Z,103548.13
2023-02-12T10:50:29.037Z,103555.53
2023-02-12T10:53:01.461Z,103550.69
2023-02-12T10:55:33.148Z,103555.03
2023-02-12T10:58:03.008Z,103560.41
2023-02-12T11:00:33.979Z,103560.06
2023-02-12T11:03:04.335Z,103559.53
2023-02-12T11:05:36.080Z,103563.19
2023-02-12T11:08:04.606Z,103543.91
2023-02-12T11:10:42.425Z,103543.50
2023-02-12T11:13:25.398Z,103559.84
2023-02-12T11:15:53.065Z,103550.72
2023-02-12T11:18:26.778Z,103543.94
2023-02-12T11:20:57.369Z,103546.94
2023-02-12T11:23:24.529Z,103550.38
2023-02-12T11:26:04.487Z,103547.09
2023-02-12T11:28:36.478Z,103542.28
2023-02-12T11:31:18.088Z,103536.22
2023-02-12T11:33:46.358Z,103547.19
2023-02-12T11:36:22.761Z,103533.22
2023-02-12T11:38:56.002Z,103528.53
2023-02-12T11:42:16.400Z,103525.69
2023-02-12T11:44:52.825Z,103525.59
2023-02-12T11:47:39.346Z,103526.63
2023-02-12T11:50:26.817Z,103517.00
2023-02-12T11:52:58.546Z,103510.22
2023-02-12T11:55:31.586Z,103509.72
2023-02-12T11:58:17.471Z,103512.59
2023-02-12T12:01:17.977Z,103512.66
2023-02-12T12:03:50.598Z,103516.31
2023-02-12T12:06:32.683Z,103512.50
2023-02-12T12:09:16.507Z,103502.56
2023-02-12T12:12:09.193Z,103505.06
2023-02-12T12:15:00.655Z,103494.41
2023-02-12T12:17:56.317Z,103489.31
2023-02-12T12:20:27.606Z,103486.66
2023-02-12T12:23:14.739Z,103489.13
2023-02-12T12:26:24.455Z,103486.41
2023-02-12T12:29:02.907Z,103476.72
2023-02-12T12:31:40.731Z,103476.28
2023-02-12T12:34:10.952Z,103477.44
2023-02-12T12:37:08.533Z,103476.59
2023-02-12T12:39:50.950Z,103477.34
2023-02-12T12:42:54.005Z,103472.97
2023-02-12T12:46:00.336Z,103460.56
2023-02-12T12:48:53.762Z,103460.59
2023-02-12T12:51:30.081Z,103463.34
2023-02-12T12:54:33.441Z,103468.03
2023-02-12T12:57:19.345Z,103466.88
2023-02-12T13:00:26.271Z,103452.63
2023-02-12T13:03:22.285Z,103448.00
2023-02-12T13:06:00.413Z,103450.44
2023-02-12T13:09:06.324Z,103452.56
2023-02-12T13:12:12.055Z,103444.88
2023-02-12T13:15:01.240Z,103440.16
2023-02-12T13:17:37.147Z,103442.19
2023-02-12T13:20:27.592Z,103427.69
2023-02-12T13:23:16.639Z,103429.16
2023-02-12T13:26:16.133Z,103421.88
2023-02-12T13:28:49.333Z,103426.75
2023-02-12T13:31:32.446Z,103415.06
2023-02-12T13:34:15.669Z,103414.22
2023-02-12T13:36:46.023Z,103406.22
2023-02-12T13:39:29.279Z,103414.00
2023-02-12T13:42:37.136Z,103413.28
2023-02-12T13:45:20.553Z,103413.16
2023-02-12T13:48:09.947Z,103406.88
2023-02-12T13:50:40.703Z,103403.66
2023-02-12T13:53:19.112Z,103402.91
2023-02-12T13:56:02.488Z,103401.94
2023-02-12T13:58:37.435Z,103397.03
2023-02-12T14:01:04.802Z,103406.53
2023-02-12T14:03:35.810Z,103395.09
2023-02-12T14:06:20.592Z,103400.16
2023-02-12T14:08:51.591Z,103401.84
2023-02-12T14:11:26.056Z,103388.66
2023-02-12T14:14:02.048Z,103394.72
2023-02-12T14:16:29.417Z,103393.13
2023-02-12T14:19:34.447Z,103391.41
2023-02-12T14:22:03.607Z,103391.56
2023-02-12T14:24:56.726Z,103382.28
2023-02-12T14:27:31.832Z,103390.03
2023-02-12T14:30:08.350Z,103385.44
2023-02-12T14:32:54.236Z,103381.44
2023-02-12T14:35:30.399Z,103386.50
2023-02-12T14:38:00.013Z,103385.06
2023-02-12T14:40:47.371Z,103384.03
2023-02-12T14:43:32.945Z,103392.25
2023-02-12T14:46:23.076Z,103384.09
2023-02-12T14:48:56.148Z,103387.38
2023-02-12T14:51:34.317Z,103383.66
2023-02-12T14:54:04.401Z,103380.72
2023-02-12T14:56:40.999Z,103385.00
2023-02-12T14:59:17.677Z,103376.66
2023-02-12T15:01:48.085Z,103384.34
2023-02-12T15:04:27.013Z,103384.66
2023-02-12T15:07:01.745Z,103378.66
2023-02-12T15:10:11.269Z,103379.22
2023-02-12T15:13:14.211Z,103373.28
2023-02-12T15:16:01.378Z,103376.00
2023-02-12T15:18:59.257Z,103378.97
2023-02-12T15:21:29.509Z,103373.97
2023-02-12T15:24:10.562Z,103369.19
2023-02-12T15:26:43.747Z,103381.19
2023-02-12T15:29:31.054Z,103372.94
2023-02-12T15:32:01.293Z,103369.66
2023-02-12T15:34:33.131Z,103366.66
2023-02-12T15:37:03.178Z,103366.44
2023-02-12T15:40:00.352Z,103371.84
2023-02-12T15:42:39.403Z,103364.03
2023-02-12T15:45:19.292Z,103366.66
2023-02-12T15:48:07.765Z,103357.78
2023-02-12T15:50:36.732Z,103348.16
2023-02-12T15:53:06.689Z,103357.31
2023-02-12T15:55:40.616Z,103348.38
2023-02-12T15:58:21.963Z,103360.97
2023-02-12T16:00:50.680Z,103354.97
2023-02-12T16:03:23.806Z,103353.22
2023-02-12T16:05:52.194Z,103346.00
2023-02-12T16:08:27.113Z,103350.34
2023-02-12T16:10:55.545Z,103353.72
2023-02-12T16:13:36.377Z,103354.00
2023-02-12T16:16:08.544Z,103352.50
2023-02-12T16:18:44.589Z,103343.78
2023-02-12T16:21:33.361Z,103345.22
2023-02-12T16:27:50.434Z,103343.41
2023-02-12T16:30:37.791Z,103353.78
2023-02-12T16:33:06.886Z,103345.75
2023-02-12T16:35:36.646Z,103336.19
2023-02-12T16:38:31.351Z,103355.84
2023-02-12T16:41:27.055Z,103352.59
2023-02-12T16:44:00.979Z,103351.66
2023-02-12T16:46:33.722Z,103349.59
2023-02-12T16:49:24.694Z,103343.31
2023-02-12T16:51:53.899Z,103348.50
2023-02-12T16:54:34.805Z,103338.44
2023-02-12T17:02:58.144Z,103352.00
2023-02-12T17:05:30.905Z,103347.94
2023-02-12T17:07:58.064Z,103347.69
2023-02-12T17:10:29.178Z,103345.75
2023-02-12T17:12:58.926Z,103351.19
2023-02-12T17:15:55.347Z,103342.75
2023-02-12T17:18:26.214Z,103341.19
2023-02-12T17:20:56.821Z,103340.03
2023-02-12T17:23:24.705Z,103333.53
2023-02-12T17:25:52.486Z,103340.00
2023-02-12T17:28:23.062Z,103336.63
2023-02-12T17:30:56.800Z,103344.03
2023-02-12T17:33:25.478Z,103332.47
2023-02-12T17:35:53.617Z,103330.03
2023-02-12T17:38:21.164Z,103338.59
2023-02-12T17:40:52.788Z,103330.44
2023-02-12T17:43:22.141Z,103339.38
2023-02-12T17:45:52.117Z,103338.91
2023-02-12T17:48:22.814Z,103345.41
2023-02-12T17:50:54.989Z,103327.59
2023-02-12T17:53:22.750Z,103332.53
2023-02-12T17:55:50.828Z,103338.63
2023-02-12T17:58:22.203Z,103335.28
2023-02-12T18:00:50.664Z,103338.09
2023-02-12T18:03:20.588Z,103331.59
2023-02-12T18:05:52.150Z,103347.22
2023-02-12T18:08:23.761Z,103338.78
2023-02-12T18:10:51.414Z,103346.22
2023-02-12T18:13:27.718Z,103341.88
2023-02-12T18:16:01.779Z,103339.81
2023-02-12T18:18:32.416Z,103325.16
2023-02-12T18:20:59.829Z,103324.31
2023-02-12T18:23:27.115Z,103329.03
2023-02-12T18:25:54.460Z,103333.88
2023-02-12T18:28:22.980Z,103323.50
2023-02-12T18:30:58.523Z,103323.78
2023-02-12T18:33:26.785Z,103324.25
2023-02-12T18:36:12.120Z,103328.13
2023-02-12T18:38:42.194Z,103318.34
2023-02-12T18:41:16.014Z,103323.94
2023-02-12T18:43:45.071Z,103323.41
2023-02-12T18:46:22.235Z,103320.88
2023-02-12T18:48:51.674Z,103317.75
2023-02-12T18:51:22.820Z,103311.72
2023-02-12T18:54:05.914Z,103318.22
2023-02-12T18:56:41.809Z,103314.06
2023-02-12T18:59:12.732Z,103321.13
2023-02-12T19:01:40.449Z,103318.00
2023-02-12T19:04:10.475Z,103314.91
2023-02-12T19:06:47.313Z,103319.16
2023-02-12T19:09:22.324Z,103315.19
2023-02-12T19:11:53.625Z,103319.88
2023-02-12T19:14:23.686Z,103311.00
2023-02-12T19:16:59.516Z,103317.09
2023-02-12T19:19:30.020Z,103309.59
2023-02-12T19:22:02.310Z,103321.41
2023-02-12T19:24:45.838Z,103304.41
2023-02-12T19:27:14.170Z,103312.03
2023-02-12T19:29:44.464Z,103304.31
2023-02-12T19:32:15.681Z,103305.97
2023-02-12T19:34:47.674Z,103303.59
2023-02-12T19:37:15.486Z,103312.22
2023-02-12T19:39:45.954Z,103317.44
2023-02-12T19:42:19.727Z,103319.09
2023-02-12T19:44:57.465Z,103317.16
2023-02-12T19:47:27.351Z,103318.41
2023-02-12T19:49:56.169Z,103307.78
2023-02-12T19:52:26.748Z,103321.50
2023-02-12T19:54:56.998Z,103308.78
2023-02-12T19:57:37.686Z,103315.28
2023-02-12T20:00:07.982Z,103313.28
2023-02-12T20:02:36.588Z,103317.53
2023-02-12T20:05:08.398Z,103322.59
2023-02-12T20:07:36.228Z,103315.81
2023-02-12T20:10:05.602Z,103327.84
2023-02-12T20:12:34.190Z,103318.63
2023-02-12T20:15:05.002Z,103312.38
2023-02-12T20:17:37.615Z,103322.84
2023-02-12T20:20:09.106Z,103320.22
2023-02-12T20:22:40.234Z,103327.13
2023-02-12T20:25:10.527Z,103315.59
2023-02-12T20:27:38.373Z,103327.56
2023-02-12T20:30:07.121Z,103315.69
2023-02-12T20:32:46.942Z,103311.16
2023-02-12T20:35:17.934Z,103318.22
2023-02-12T20:37:47.396Z,103315.47
2023-02-12T20:40:18.170Z,103315.38
2023-02-12T20:42:51.232Z,103312.41
2023-02-12T20:45:23.636Z,103317.78
2023-02-12T20:47:53.243Z,103317.69
2023-02-12T20:50:23.369Z,103317.44
2023-02-12T20:52:53.324Z,103317.69
2023-02-12T20:55:22.916Z,103325.66
2023-02-12T20:57:54.294Z,103322.63
2023-02-12T21:00:26.916Z,103323.91
2023-02-12T21:02:55.242Z,103322.28
2023-02-12T21:05:25.194Z,103323.78
2023-02-12T21:07:53.332Z,103330.63
2023-02-12T21:10:23.911Z,103323.25
2023-02-12T21:12:54.010Z,103323.41
2023-02-12T21:15:25.026Z,103327.22
2023-02-12T21:17:54.290Z,103319.63
2023-02-12T21:20:23.328Z,103321.03
2023-02-12T21:22:57.392Z,103312.25
2023-02-12T21:25:24.969Z,103314.22
2023-02-12T21:27:56.128Z,103305.56
2023-02-12T21:30:25.327Z,103309.81
2023-02-12T21:32:55.628Z,103309.41
2023-02-12T21:35:25.801Z,103306.16
2023-02-12T21:37:54.083Z,103305.88
2023-02-12T21:40:25.119Z,103299.66
2023-02-12T21:42:57.513Z,103304.75
2023-02-12T21:45:25.815Z,103310.63
2023-02-12T21:48:00.143Z,103316.63
2023-02-12T21:50:27.834Z,103311.19
2023-02-12T21:52:55.862Z,103310.66
2023-02-12T21:55:25.577Z,103300.28
2023-02-12T21:57:54.852Z,103309.69
2023-02-12T22:00:26.543Z,103307.22
2023-02-12T22:02:55.030Z,103313.97
2023-02-12T22:05:27.465Z,103315.03
2023-02-12T22:07:58.341Z,103314.03
2023-02-12T22:10:26.636Z,103314.66
2023-02-12T22:12:55.602Z,103316.53
2023-02-12T22:15:27.236Z,103310.78
2023-02-12T22:17:57.833Z,103313.16
2023-02-12T22:20:26.833Z,103315.38
2023-02-12T22:22:55.369Z,103317.34
2023-02-12T22:25:24.835Z,103302.88
2023-02-12T22:27:53.222Z,103308.16
2023-02-12T22:30:23.361Z,103305.84
2023-02-12T22:32:58.492Z,103310.06
2023-02-12T22:35:26.383Z,103303.41
2023-02-12T22:37:54.752Z,103300.63
2023-02-12T22:40:25.531Z,103307.06
2023-02-12T22:42:56.930Z,103303.06
2023-02-12T22:45:25.542Z,103312.22
2023-02-12T22:47:54.407Z,103308.16
2023-02-12T22:50:26.090Z,103315.28
2023-02-12T22:53:01.945Z,103313.41
2023-02-12T22:55:29.350Z,103318.00
2023-02-12T22:57:58.831Z,103311.84
2023-02-12T23:00:29.102Z,103313.91
2023-02-12T23:02:58.038Z,103315.97
2023-02-12T23:05:25.443Z,103317.91
2023-02-12T23:07:54.508Z,103315.34
2023-02-12T23:10:26.500Z,103314.81
2023-02-12T23:12:55.240Z,103319.94
2023-02-12T23:15:24.850Z,103316.44
2023-02-12T23:17:54.951Z,103316.63
2023-02-12T23:20:27.530Z,103311.47
2023-02-12T23:22:56.300Z,103312.72
2023-02-12T23:25:25.365Z,103299.91
2023-02-12T23:27:53.670Z,103305.47
2023-02-12T23:30:28.267Z,103304.75
2023-02-12T23:32:56.635Z,103293.81
2023-02-12T23:35:25.330Z,103297.34
2023-02-12T23:37:54.472Z,103297.69
2023-02-12T23:40:28.006Z,103291.66
2023-02-12T23:42:59.733Z,103277.28
2023-02-12T23:45:28.367Z,103283.56
2023-02-12T23:47:56.223Z,103289.38
2023-02-12T23:50:27.369Z,103277.50
2023-02-12T23:52:55.933Z,103280.94
2023-02-12T23:55:25.895Z,103269.03
2023-02-12T23:57:55.552Z,103268.56
